KDNV/DNV METAR and TAF weather

Enter ICAO airport designator
Station Type Date Time Source
KDNV METAR 2020/06/06 13:15 UTC NOAA

KDNV 061315Z AUTO 01004KT 10SM CLR 24/21 A3003 RMK AO2 T02400210


Station Type Date Time Source
KDNV Decoded METAR 2020/06/06 13:15 UTC NOAA

Danville, Vermilion County Airport, IL, United States (KDNV) 40-11-58N 087-35-44W
Jun 06, 2020 - 09:15 AM EDT / 2020.06.06 1315 UTC
Wind: from the N (010 degrees) at 5 MPH (4 KT):0
Visibility: 10 mile(s):0
Sky conditions: clear
Temperature: 75.2 F (24.0 C)
Dew Point: 69.8 F (21.0 C)
Relative Humidity: 83%
Pressure (altimeter): 30.03 in. Hg (1016 hPa)
ob: KDNV 061315Z AUTO 01004KT 10SM CLR 24/21 A3003 RMK AO2 T02400210
cycle: 13

Station Type Date Time Source
KDNV TAF UTC NOAA

Error!

Example: see airport list